Impacts METAR Board
IDs:

KSEA - Seattle-Tacoma Intl, WA, US

Updated at: 0600 UTC 07 Dec 2022
Potential Impact None Slight Moderate High
Time 06/18Z 06/19Z 06/20Z 06/21Z 06/22Z 06/23Z 07/00Z 07/01Z 07/02Z 07/03Z 07/04Z 07/05Z 07/06Z
Temp39 39 40 39 40 41 41 41 41 41 41 41 41
Dewpt36 37 37 37 36 37 38 38 38 38 38 38 38
Altim30.14 30.14 30.14 30.13 30.12 30.12 30.13 30.13 30.14 30.15 30.15 30.16 30.17
VIS10 10 10 10 10 10 10 10 10 10 10 10 6
CIG8 7 7 10 10 15 18 8 12 11 17 18 11
CoverOVCBKNOVCOVCOVCOVCOVCOVCOVCOVCOVCOVCOVC
FltCatIFRIFRIFRMVFRMVFRMVFRMVFRIFRMVFRMVFRMVFRMVFRMVFR
WX---------------DZ---------RA BR
WDir150170180150160140140170170190180170160
WSpd6 6 6 6 6 7 5 8 8 7 6 8 5
WGst-- -- -- -- -- -- -- -- -- -- -- -- --
Raw hourly METARs
KSEA 061800Z 15006KT 10SM BKN008 OVC013 04/02 A3014 RMK AO2 T00390022
KSEA 061853Z 17006KT 10SM BKN007 BKN012 04/03 A3014 RMK AO2 SLP217 T00390028
KSEA 061953Z 18006KT 10SM BKN007 OVC015 04/03 A3014 RMK AO2 SLP214 T00440028
KSEA 062053Z 15006KT 10SM BKN010 OVC020 04/03 A3013 RMK AO2 SLP213 T00390028 58003
KSEA 062153Z 16006KT 10SM OVC010 04/02 A3012 RMK AO2 SLP210 T00440022
KSEA 062253Z 14007KT 10SM FEW010 OVC015 05/03 A3012 RMK AO2 SLP210 T00500028
KSEA 062353Z 14005KT 10SM SCT010 OVC018 05/03 A3013 RMK AO2 SLP212 T00500033 10050 20039 55000
KSEA 070053Z 17008KT 10SM -DZ BKN008 OVC015 05/03 A3013 RMK AO2 DZB50 SLP214 P0000 T00500033
KSEA 070153Z 17008KT 10SM BKN012 OVC017 05/03 A3014 RMK AO2 DZE12 SLP216 P0000 T00500033
KSEA 070253Z 19007KT 10SM BKN011 OVC020 05/03 A3015 RMK AO2 SLP218 60000 T00500033 53005
KSEA 070353Z 18006KT 10SM OVC017 05/03 A3015 RMK AO2 SLP220 T00500033
KSEA 070453Z 17008KT 10SM FEW010 OVC018 05/03 A3016 RMK AO2 SLP222 T00500033
KSEA 070553Z 16005KT 6SM -RA BR BKN011 OVC019 05/03 A3017 RMK AO2 RAB28 SLP225 P0000 60000 T00500033 10056 20050 53007



Page loaded:  06:34 UTC  |   10:34 PM Pacific  |   11:34 PM Mountain  |   12:34 AM Central  |   01:34 AM Eastern

 

ADVISORIES

FORECASTS

FORECASTS

OBSERVATIONS

USER TOOLS

ABOUT US